Terminal Aerodrome Forecast
Issued by NWS

Home | Current Version | Previous Version | Text Only | Print | Product List | Glossary On
Versions: 1 2 3 4 5 6 7 8 9 10 11 12
007
FTUS41 KBTV 231131
TAFRUT
TAF
KRUT 231131Z 2312/2412 20008G14KT P6SM VCSH SCT035 OVC045
     FM240100 20008KT P6SM VCSH OVC030
     FM240400 23009KT P6SM VCSH OVC010
     FM241100 26006KT P6SM VCSH BKN015=

USA.gov is the U.S. government's official web portal to all federal, state and local government web resources and services.